Time,TemperatureF,DewpointF,PressureIn,WindDirection,WindDirectionDegrees,WindSpeedMPH,WindSpeedGustMPH,Humidity,HourlyPrecipIn,Conditions,Clouds,dailyrainin,SoftwareType,DateUTC
2012-11-18 00:00:00,41.7,40.9,29.67,ESE,112,0.0,0.0,97,0.00,,,0.00,WUHU21623XXSP,2012-11-18 08:00:00,
2012-11-18 00:05:00,41.7,40.9,29.67,SE,135,0.0,0.0,97,0.00,,,0.00,WUHU21623XXSP,2012-11-18 08:05:00,
2012-11-18 00:10:00,41.7,40.9,29.67,SE,135,0.0,0.0,97,0.00,,,0.00,WUHU21623XXSP,2012-11-18 08:10:00,
2012-11-18 00:15:00,41.5,40.7,29.67,ESE,112,0.0,0.0,97,0.00,,,0.00,WUHU21623XXSP,2012-11-18 08:15:00,
2012-11-18 00:20:00,41.5,40.7,29.66,SE,135,0.0,0.0,97,0.00,,,0.00,WUHU21623XXSP,2012-11-18 08:20:00,
2012-11-18 00:25:00,41.5,40.7,29.67,South,180,0.0,0.0,97,0.00,,,0.00,WUHU21623XXSP,2012-11-18 08:25:00,
2012-11-18 00:30:00,41.4,40.5,29.67,SE,135,0.0,0.0,97,0.00,,,0.00,WUHU21623XXSP,2012-11-18 08:30:00,
2012-11-18 00:35:00,41.4,40.5,29.67,SE,135,0.0,0.0,97,0.00,,,0.00,WUHU21623XXSP,2012-11-18 08:35:00,
2012-11-18 00:40:00,41.4,40.5,29.67,East,90,0.0,0.0,97,0.00,,,0.00,WUHU21623XXSP,2012-11-18 08:40:00,
2012-11-18 00:45:00,41.5,40.7,29.67,SE,135,0.0,0.0,97,0.00,,,0.00,WUHU21623XXSP,2012-11-18 08:45:00,
2012-11-18 00:50:00,41.5,40.7,29.67,SE,135,0.0,0.0,97,0.00,,,0.00,WUHU21623XXSP,2012-11-18 08:50:00,
2012-11-18 00:55:00,41.5,40.7,29.68,SE,135,0.0,0.0,97,0.00,,,0.00,WUHU21623XXSP,2012-11-18 08:55:00,
2012-11-18 01:00:00,41.5,40.7,29.67,ESE,112,0.0,0.0,97,0.00,,,0.00,WUHU21623XXSP,2012-11-18 09:00:00,
2012-11-18 01:05:00,41.5,40.7,29.68,SE,135,0.0,0.0,97,0.00,,,0.00,WUHU21623XXSP,2012-11-18 09:05:00,
2012-11-18 01:10:00,41.7,40.9,29.68,SE,135,0.0,0.0,97,0.00,,,0.00,WUHU21623XXSP,2012-11-18 09:10:00,
2012-11-18 01:15:00,41.5,40.7,29.68,SE,135,0.0,0.0,97,0.00,,,0.00,WUHU21623XXSP,2012-11-18 09:15:00,
2012-11-18 01:20:00,41.7,40.9,29.68,ENE,67,0.0,0.0,97,0.00,,,0.00,WUHU21623XXSP,2012-11-18 09:20:00,
2012-11-18 01:25:00,41.7,40.9,29.68,ENE,67,0.0,0.0,97,0.00,,,0.00,WUHU21623XXSP,2012-11-18 09:25:00,
2012-11-18 01:30:00,41.7,40.9,29.68,NE,45,0.0,0.0,97,0.00,,,0.00,WUHU21623XXSP,2012-11-18 09:30:00,
2012-11-18 01:35:00,41.7,40.9,29.68,ESE,112,0.0,0.0,97,0.00,,,0.00,WUHU21623XXSP,2012-11-18 09:35:00,
2012-11-18 01:40:00,41.7,40.9,29.68,SE,135,0.0,0.0,97,0.00,,,0.00,WUHU21623XXSP,2012-11-18 09:40:00,
2012-11-18 01:45:00,41.7,40.6,29.68,ESE,112,0.0,0.0,96,0.00,,,0.00,WUHU21623XXSP,2012-11-18 09:45:00,
2012-11-18 01:50:00,41.7,40.6,29.68,ESE,112,0.0,0.0,96,0.00,,,0.00,WUHU21623XXSP,2012-11-18 09:50:00,
2012-11-18 01:55:00,41.7,40.6,29.68,ESE,112,0.0,0.0,96,0.00,,,0.00,WUHU21623XXSP,2012-11-18 09:55:00,
2012-11-18 02:00:00,41.7,40.6,29.68,SE,135,0.0,0.0,96,0.00,,,0.00,WUHU21623XXSP,2012-11-18 10:00:00,
2012-11-18 02:05:00,41.7,40.6,29.68,ESE,112,0.0,0.0,96,0.00,,,0.00,WUHU21623XXSP,2012-11-18 10:05:00,
2012-11-18 02:10:00,41.7,40.6,29.68,ESE,112,0.0,0.0,96,0.00,,,0.00,WUHU21623XXSP,2012-11-18 10:10:00,
2012-11-18 02:15:00,41.7,40.9,29.68,SE,135,0.0,0.0,97,0.00,,,0.00,WUHU21623XXSP,2012-11-18 10:15:00,
2012-11-18 02:20:00,41.7,40.9,29.69,SE,135,0.0,0.0,97,0.00,,,0.00,WUHU21623XXSP,2012-11-18 10:20:00,
2012-11-18 02:25:00,41.7,40.9,29.69,ESE,112,0.0,0.0,97,0.00,,,0.00,WUHU21623XXSP,2012-11-18 10:25:00,
2012-11-18 02:30:00,41.7,40.9,29.69,SE,135,0.0,0.0,97,0.00,,,0.00,WUHU21623XXSP,2012-11-18 10:30:00,
2012-11-18 02:35:00,41.7,40.9,29.70,SSW,202,0.0,0.0,97,0.00,,,0.00,WUHU21623XXSP,2012-11-18 10:35:00,
2012-11-18 02:40:00,41.7,40.9,29.69,East,90,0.0,0.0,97,0.00,,,0.00,WUHU21623XXSP,2012-11-18 10:40:00,
2012-11-18 02:45:00,41.7,40.9,29.69,ESE,112,0.0,0.0,97,0.00,,,0.00,WUHU21623XXSP,2012-11-18 10:45:00,
2012-11-18 02:50:00,41.7,40.9,29.69,ESE,112,0.0,0.0,97,0.00,,,0.00,WUHU21623XXSP,2012-11-18 10:50:00,
2012-11-18 02:55:00,41.7,40.9,29.69,ESE,112,0.0,0.0,97,0.00,,,0.00,WUHU21623XXSP,2012-11-18 10:55:00,
2012-11-18 03:00:00,41.5,40.7,29.69,ESE,112,0.0,0.0,97,0.00,,,0.00,WUHU21623XXSP,2012-11-18 11:00:00,
2012-11-18 03:05:00,41.5,40.7,29.69,ESE,112,0.0,0.0,97,0.00,,,0.00,WUHU21623XXSP,2012-11-18 11:05:00,
2012-11-18 03:10:00,41.5,40.7,29.69,ESE,112,0.0,0.0,97,0.00,,,0.00,WUHU21623XXSP,2012-11-18 11:10:00,
2012-11-18 03:15:00,41.5,40.7,29.70,ESE,112,0.0,0.0,97,0.00,,,0.00,WUHU21623XXSP,2012-11-18 11:15:00,
2012-11-18 03:20:00,41.5,40.7,29.69,ESE,112,0.0,0.0,97,0.00,,,0.00,WUHU21623XXSP,2012-11-18 11:20:00,
2012-11-18 03:25:00,41.5,40.7,29.70,ESE,112,0.0,0.0,97,0.00,,,0.00,WUHU21623XXSP,2012-11-18 11:25:00,
2012-11-18 03:30:00,41.5,40.7,29.70,SE,135,0.0,0.0,97,0.00,,,0.00,WUHU21623XXSP,2012-11-18 11:30:00,
2012-11-18 03:35:00,41.7,40.9,29.70,SSE,157,0.0,0.0,97,0.00,,,0.00,WUHU21623XXSP,2012-11-18 11:35:00,
2012-11-18 03:40:00,41.7,40.9,29.70,SSE,157,0.0,0.0,97,0.00,,,0.00,WUHU21623XXSP,2012-11-18 11:40:00,
2012-11-18 03:45:00,41.7,40.9,29.69,East,90,0.0,0.0,97,0.00,,,0.00,WUHU21623XXSP,2012-11-18 11:45:00,
2012-11-18 03:50:00,41.9,41.1,29.70,SE,135,0.0,0.0,97,0.00,,,0.00,WUHU21623XXSP,2012-11-18 11:50:00,
2012-11-18 03:55:00,41.9,41.1,29.70,NNW,337,0.0,0.0,97,0.00,,,0.00,WUHU21623XXSP,2012-11-18 11:55:00,
2012-11-18 04:00:00,41.9,41.1,29.70,SE,135,0.0,0.0,97,0.00,,,0.00,WUHU21623XXSP,2012-11-18 12:00:00,
2012-11-18 04:05:00,41.9,41.1,29.71,ESE,112,0.0,0.0,97,0.00,,,0.00,WUHU21623XXSP,2012-11-18 12:05:00,
2012-11-18 04:10:00,41.9,41.1,29.71,SE,135,0.0,0.0,97,0.00,,,0.00,WUHU21623XXSP,2012-11-18 12:10:00,
2012-11-18 04:15:00,41.9,41.1,29.71,ENE,67,0.0,0.0,97,0.00,,,0.00,WUHU21623XXSP,2012-11-18 12:15:00,
2012-11-18 04:20:00,41.9,41.1,29.71,ENE,67,0.0,0.0,97,0.00,,,0.00,WUHU21623XXSP,2012-11-18 12:20:00,
2012-11-18 04:25:00,41.9,41.1,29.71,East,90,0.0,0.0,97,0.00,,,0.00,WUHU21623XXSP,2012-11-18 12:25:00,
2012-11-18 04:30:00,41.9,41.1,29.71,ESE,112,0.0,0.0,97,0.00,,,0.00,WUHU21623XXSP,2012-11-18 12:30:00,
2012-11-18 04:35:00,41.9,41.1,29.72,East,90,0.0,0.0,97,0.00,,,0.00,WUHU21623XXSP,2012-11-18 12:35:00,
2012-11-18 04:40:00,41.7,41.1,29.71,East,90,0.0,0.0,97,0.00,,,0.00,WUHU21623XXSP,2012-11-18 12:40:00,
2012-11-18 04:45:00,41.7,41.1,29.72,SE,135,0.0,0.0,97,0.00,,,0.00,WUHU21623XXSP,2012-11-18 12:45:00,
2012-11-18 04:50:00,41.7,40.9,29.72,SE,135,0.0,0.0,97,0.00,,,0.00,WUHU21623XXSP,2012-11-18 12:50:00,
2012-11-18 04:55:00,41.7,40.9,29.72,SE,135,0.0,0.0,97,0.00,,,0.00,WUHU21623XXSP,2012-11-18 12:55:00,
2012-11-18 05:00:00,41.7,40.9,29.72,SE,135,0.0,0.0,97,0.00,,,0.00,WUHU21623XXSP,2012-11-18 13:00:00,
2012-11-18 05:05:00,41.7,40.9,29.72,ESE,112,0.0,0.0,97,0.00,,,0.00,WUHU21623XXSP,2012-11-18 13:05:00,
2012-11-18 05:10:00,41.7,40.9,29.72,ENE,67,0.0,0.0,97,0.00,,,0.00,WUHU21623XXSP,2012-11-18 13:10:00,
2012-11-18 05:15:00,41.7,40.9,29.72,ESE,112,0.0,0.0,97,0.00,,,0.00,WUHU21623XXSP,2012-11-18 13:15:00,
2012-11-18 05:20:00,41.7,40.9,29.72,SE,135,0.0,0.0,97,0.00,,,0.00,WUHU21623XXSP,2012-11-18 13:20:00,
2012-11-18 05:25:00,41.7,40.9,29.72,ENE,67,0.0,0.0,97,0.00,,,0.00,WUHU21623XXSP,2012-11-18 13:25:00,
2012-11-18 05:30:00,41.7,40.9,29.72,ESE,112,0.0,0.0,97,0.00,,,0.00,WUHU21623XXSP,2012-11-18 13:30:00,
2012-11-18 05:35:00,41.7,41.2,29.72,SE,135,0.0,0.0,98,0.00,,,0.00,WUHU21623XXSP,2012-11-18 13:35:00,
2012-11-18 05:40:00,41.7,41.2,29.71,East,90,0.0,0.0,98,0.00,,,0.00,WUHU21623XXSP,2012-11-18 13:40:00,
2012-11-18 05:45:00,41.7,41.2,29.71,SE,135,0.0,0.0,98,0.00,,,0.00,WUHU21623XXSP,2012-11-18 13:45:00,
2012-11-18 05:50:00,41.7,41.2,29.71,ESE,112,0.0,0.0,98,0.00,,,0.00,WUHU21623XXSP,2012-11-18 13:50:00,
2012-11-18 05:55:00,41.7,40.9,29.71,ESE,112,0.0,0.0,97,0.00,,,0.00,WUHU21623XXSP,2012-11-18 13:55:00,
2012-11-18 06:00:00,41.7,41.2,29.71,ESE,112,0.0,0.0,98,0.00,,,0.00,WUHU21623XXSP,2012-11-18 14:00:00,
2012-11-18 06:05:00,41.7,41.2,29.71,SE,135,0.0,0.0,97,0.00,,,0.00,WUHU21623XXSP,2012-11-18 14:05:00,
2012-11-18 06:10:00,41.7,41.2,29.70,SE,135,0.0,0.0,98,0.00,,,0.00,WUHU21623XXSP,2012-11-18 14:10:00,
2012-11-18 06:15:00,41.7,41.2,29.70,SE,135,0.0,0.0,98,0.00,,,0.00,WUHU21623XXSP,2012-11-18 14:15:00,
2012-11-18 06:20:00,41.7,41.2,29.70,ESE,112,0.0,0.0,98,0.00,,,0.00,WUHU21623XXSP,2012-11-18 14:20:00,
2012-11-18 06:25:00,41.7,41.2,29.70,SE,135,0.0,0.0,98,0.00,,,0.00,WUHU21623XXSP,2012-11-18 14:25:00,
2012-11-18 06:30:00,41.7,41.2,29.70,SE,135,0.0,0.0,98,0.00,,,0.00,WUHU21623XXSP,2012-11-18 14:30:00,
2012-11-18 06:35:00,41.7,41.2,29.70,ESE,112,0.0,0.0,98,0.00,,,0.00,WUHU21623XXSP,2012-11-18 14:35:00,
2012-11-18 06:40:00,41.7,40.9,29.70,ESE,112,0.0,0.0,97,0.00,,,0.00,WUHU21623XXSP,2012-11-18 14:40:00,
2012-11-18 06:45:00,41.7,40.9,29.70,SE,135,0.0,0.0,97,0.00,,,0.00,WUHU21623XXSP,2012-11-18 14:45:00,
2012-11-18 06:50:00,41.7,41.2,29.70,ENE,67,0.0,0.0,98,0.00,,,0.00,WUHU21623XXSP,2012-11-18 14:50:00,
2012-11-18 06:55:00,41.7,40.9,29.70,ESE,112,0.0,0.0,97,0.00,,,0.00,WUHU21623XXSP,2012-11-18 14:55:00,
2012-11-18 07:00:00,41.7,40.9,29.70,ESE,112,0.0,0.0,97,0.00,,,0.00,WUHU21623XXSP,2012-11-18 15:00:00,
2012-11-18 07:05:00,41.7,40.9,29.70,ESE,112,0.0,0.0,97,0.00,,,0.00,WUHU21623XXSP,2012-11-18 15:05:00,
2012-11-18 07:10:00,41.7,40.9,29.70,ESE,112,0.0,0.0,97,0.00,,,0.00,WUHU21623XXSP,2012-11-18 15:10:00,
2012-11-18 07:15:00,41.7,40.9,29.70,ESE,112,0.0,0.0,97,0.00,,,0.00,WUHU21623XXSP,2012-11-18 15:15:00,
2012-11-18 07:20:00,41.9,41.1,29.70,ESE,112,0.0,0.0,97,0.00,,,0.00,WUHU21623XXSP,2012-11-18 15:20:00,
2012-11-18 07:25:00,41.9,41.1,29.70,SE,135,0.0,0.0,97,0.00,,,0.00,WUHU21623XXSP,2012-11-18 15:25:00,
2012-11-18 07:30:00,41.9,41.1,29.70,SE,135,0.0,0.0,97,0.00,,,0.00,WUHU21623XXSP,2012-11-18 15:30:00,
2012-11-18 07:35:00,41.9,41.1,29.70,ESE,112,0.0,0.0,97,0.00,,,0.00,WUHU21623XXSP,2012-11-18 15:35:00,
2012-11-18 07:40:00,42.1,41.3,29.69,SE,135,0.0,0.0,97,0.00,,,0.00,WUHU21623XXSP,2012-11-18 15:40:00,
2012-11-18 07:45:00,41.9,41.3,29.70,ESE,112,0.0,0.0,97,0.00,,,0.00,WUHU21623XXSP,2012-11-18 15:45:00,
2012-11-18 07:50:00,42.1,41.3,29.70,SE,135,0.0,0.0,97,0.00,,,0.00,WUHU21623XXSP,2012-11-18 15:50:00,
2012-11-18 07:55:00,42.1,41.3,29.70,East,90,0.0,0.0,97,0.00,,,0.00,WUHU21623XXSP,2012-11-18 15:55:00,
2012-11-18 08:00:00,42.1,41.3,29.70,ESE,112,0.0,0.0,97,0.00,,,0.00,WUHU21623XXSP,2012-11-18 16:00:00,
2012-11-18 08:05:00,42.1,41.3,29.70,ESE,112,0.0,0.0,97,0.00,,,0.00,WUHU21623XXSP,2012-11-18 16:05:00,
2012-11-18 08:10:00,42.4,41.6,29.70,ENE,67,0.0,0.0,97,0.00,,,0.00,WUHU21623XXSP,2012-11-18 16:10:00,
2012-11-18 08:15:00,42.4,41.6,29.70,ESE,112,0.0,0.0,97,0.00,,,0.00,WUHU21623XXSP,2012-11-18 16:15:00,
2012-11-18 08:20:00,42.4,41.6,29.71,SE,135,0.0,0.0,97,0.00,,,0.00,WUHU21623XXSP,2012-11-18 16:20:00,
2012-11-18 08:25:00,42.6,41.8,29.70,East,90,0.0,0.0,97,0.00,,,0.00,WUHU21623XXSP,2012-11-18 16:25:00,
2012-11-18 08:30:00,42.6,41.8,29.70,SE,135,0.0,0.0,97,0.00,,,0.00,WUHU21623XXSP,2012-11-18 16:30:00,
2012-11-18 08:35:00,42.6,41.8,29.70,SE,135,0.0,0.0,97,0.00,,,0.00,WUHU21623XXSP,2012-11-18 16:35:00,
2012-11-18 08:40:00,42.6,41.8,29.71,SE,135,0.0,0.0,97,0.00,,,0.00,WUHU21623XXSP,2012-11-18 16:40:00,
2012-11-18 08:45:00,42.6,41.8,29.70,ENE,67,0.0,0.0,97,0.00,,,0.00,WUHU21623XXSP,2012-11-18 16:45:00,
2012-11-18 08:50:00,42.6,41.8,29.70,ENE,67,0.0,0.0,97,0.00,,,0.00,WUHU21623XXSP,2012-11-18 16:50:00,
2012-11-18 08:55:00,42.6,41.8,29.71,ENE,67,0.0,0.0,97,0.00,,,0.00,WUHU21623XXSP,2012-11-18 16:55:00,
2012-11-18 09:00:00,42.6,41.8,29.70,ENE,67,0.0,0.0,97,0.00,,,0.00,WUHU21623XXSP,2012-11-18 17:00:00,
2012-11-18 09:05:00,42.6,41.8,29.70,East,90,0.0,0.0,97,0.00,,,0.00,WUHU21623XXSP,2012-11-18 17:05:00,
2012-11-18 09:10:00,42.8,42.0,29.70,ESE,112,0.0,0.0,97,0.00,,,0.00,WUHU21623XXSP,2012-11-18 17:10:00,
2012-11-18 09:15:00,43.0,42.2,29.70,SE,135,0.0,0.0,97,0.00,,,0.00,WUHU21623XXSP,2012-11-18 17:15:00,
2012-11-18 09:20:00,43.0,42.2,29.70,SSW,202,0.0,0.0,97,0.00,,,0.00,WUHU21623XXSP,2012-11-18 17:20:00,
2012-11-18 09:25:00,43.0,42.2,29.70,SSW,202,0.0,0.0,97,0.00,,,0.00,WUHU21623XXSP,2012-11-18 17:25:00,
2012-11-18 09:30:00,43.0,42.2,29.71,SSW,202,0.0,0.0,97,0.00,,,0.00,WUHU21623XXSP,2012-11-18 17:30:00,
2012-11-18 09:35:00,43.0,42.2,29.70,SSW,202,0.0,0.0,97,0.00,,,0.00,WUHU21623XXSP,2012-11-18 17:35:00,
2012-11-18 09:40:00,43.0,42.2,29.71,SSW,202,0.0,0.0,97,0.00,,,0.00,WUHU21623XXSP,2012-11-18 17:40:00,
2012-11-18 09:45:00,43.0,42.2,29.71,SSW,202,0.0,0.0,97,0.00,,,0.00,WUHU21623XXSP,2012-11-18 17:45:00,
2012-11-18 09:50:00,43.2,42.4,29.71,SSW,202,0.0,0.0,97,0.00,,,0.00,WUHU21623XXSP,2012-11-18 17:50:00,
2012-11-18 09:55:00,43.2,42.6,29.71,SE,135,0.0,0.0,98,0.00,,,0.00,WUHU21623XXSP,2012-11-18 17:55:00,
2012-11-18 10:00:00,43.3,42.5,29.72,NE,45,0.0,0.0,97,0.00,,,0.00,WUHU21623XXSP,2012-11-18 18:00:00,
2012-11-18 10:05:00,43.3,42.5,29.72,ENE,67,0.0,0.0,97,0.00,,,0.00,WUHU21623XXSP,2012-11-18 18:05:00,
2012-11-18 10:10:00,43.3,42.5,29.72,SE,135,0.0,0.0,97,0.00,,,0.00,WUHU21623XXSP,2012-11-18 18:10:00,
2012-11-18 10:15:00,43.3,42.5,29.72,SE,135,0.0,0.0,97,0.00,,,0.00,WUHU21623XXSP,2012-11-18 18:15:00,
2012-11-18 10:20:00,43.3,42.5,29.72,SE,135,0.0,0.0,97,0.00,,,0.00,WUHU21623XXSP,2012-11-18 18:20:00,
2012-11-18 10:25:00,43.5,43.0,29.72,SE,135,0.0,0.0,98,0.00,,,0.00,WUHU21623XXSP,2012-11-18 18:25:00,
2012-11-18 10:30:00,43.5,43.0,29.72,SE,135,0.0,0.0,98,0.00,,,0.00,WUHU21623XXSP,2012-11-18 18:30:00,
2012-11-18 10:35:00,43.5,43.0,29.73,SE,135,0.0,0.0,98,0.00,,,0.00,WUHU21623XXSP,2012-11-18 18:35:00,
2012-11-18 10:40:00,43.5,43.0,29.73,SE,135,0.0,0.0,98,0.00,,,0.00,WUHU21623XXSP,2012-11-18 18:40:00,
2012-11-18 10:45:00,43.5,42.7,29.72,ESE,112,0.0,0.0,97,0.00,,,0.00,WUHU21623XXSP,2012-11-18 18:45:00,
2012-11-18 10:50:00,43.5,42.7,29.72,ESE,112,0.0,0.0,97,0.00,,,0.00,WUHU21623XXSP,2012-11-18 18:50:00,
2012-11-18 10:55:00,43.5,42.7,29.72,ESE,112,0.0,0.0,97,0.00,,,0.00,WUHU21623XXSP,2012-11-18 18:55:00,
2012-11-18 11:00:00,43.5,42.7,29.72,NE,45,0.0,0.0,97,0.00,,,0.00,WUHU21623XXSP,2012-11-18 19:00:00,
2012-11-18 11:05:00,43.5,42.7,29.72,ENE,67,0.0,0.0,97,0.00,,,0.00,WUHU21623XXSP,2012-11-18 19:05:00,
2012-11-18 11:10:00,43.5,42.7,29.71,SE,135,0.0,0.0,97,0.00,,,0.00,WUHU21623XXSP,2012-11-18 19:10:00,
2012-11-18 11:15:00,43.5,42.7,29.71,SE,135,0.0,0.0,97,0.00,,,0.00,WUHU21623XXSP,2012-11-18 19:15:00,
2012-11-18 11:20:00,43.7,42.9,29.71,SE,135,0.0,0.0,97,0.00,,,0.00,WUHU21623XXSP,2012-11-18 19:20:00,
2012-11-18 11:25:00,43.9,43.1,29.71,SE,135,0.0,0.0,97,0.00,,,0.00,WUHU21623XXSP,2012-11-18 19:25:00,
2012-11-18 11:30:00,44.2,43.4,29.70,ESE,112,0.0,0.0,97,0.00,,,0.00,WUHU21623XXSP,2012-11-18 19:30:00,
2012-11-18 11:35:00,44.4,43.6,29.70,ESE,112,0.0,0.0,97,0.00,,,0.00,WUHU21623XXSP,2012-11-18 19:35:00,
2012-11-18 11:40:00,44.4,43.9,29.71,East,90,0.0,0.0,98,0.00,,,0.00,WUHU21623XXSP,2012-11-18 19:40:00,
2012-11-18 11:45:00,44.4,43.9,29.70,East,90,0.0,0.0,98,0.00,,,0.00,WUHU21623XXSP,2012-11-18 19:45:00,
2012-11-18 11:50:00,44.6,44.1,29.70,NNE,22,0.0,0.0,98,0.00,,,0.00,WUHU21623XXSP,2012-11-18 19:50:00,
2012-11-18 11:55:00,44.4,43.9,29.69,ESE,112,0.0,0.0,98,0.00,,,0.00,WUHU21623XXSP,2012-11-18 19:55:00,
2012-11-18 12:00:00,44.6,44.1,29.69,ESE,112,0.0,0.0,98,0.00,,,0.00,WUHU21623XXSP,2012-11-18 20:00:00,
2012-11-18 12:05:00,44.8,44.2,29.69,SE,135,0.0,0.0,98,0.00,,,0.00,WUHU21623XXSP,2012-11-18 20:05:00,
2012-11-18 12:10:00,45.0,44.4,29.68,ESE,112,0.0,0.0,98,0.00,,,0.00,WUHU21623XXSP,2012-11-18 20:10:00,
2012-11-18 12:15:00,45.0,44.4,29.68,ESE,112,0.0,0.0,98,0.00,,,0.00,WUHU21623XXSP,2012-11-18 20:15:00,
2012-11-18 12:20:00,45.0,44.4,29.68,ESE,112,0.0,0.0,98,0.00,,,0.00,WUHU21623XXSP,2012-11-18 20:20:00,
2012-11-18 12:25:00,45.1,44.6,29.68,ESE,112,0.0,0.0,98,0.00,,,0.00,WUHU21623XXSP,2012-11-18 20:25:00,
2012-11-18 12:30:00,45.1,44.6,29.68,ESE,112,0.0,0.0,98,0.00,,,0.00,WUHU21623XXSP,2012-11-18 20:30:00,
2012-11-18 12:35:00,45.1,44.6,29.68,NNE,22,0.0,0.0,98,0.00,,,0.00,WUHU21623XXSP,2012-11-18 20:35:00,
2012-11-18 12:40:00,45.1,44.6,29.68,SE,135,0.0,0.0,98,0.00,,,0.00,WUHU21623XXSP,2012-11-18 20:40:00,
2012-11-18 12:45:00,45.1,44.6,29.68,SE,135,0.0,0.0,98,0.00,,,0.00,WUHU21623XXSP,2012-11-18 20:45:00,
2012-11-18 12:50:00,45.1,44.6,29.69,NE,45,0.0,0.0,98,0.00,,,0.00,WUHU21623XXSP,2012-11-18 20:50:00,
2012-11-18 12:55:00,45.1,44.6,29.69,SE,135,0.0,0.0,98,0.00,,,0.00,WUHU21623XXSP,2012-11-18 20:55:00,
2012-11-18 13:00:00,45.1,44.3,29.68,SE,135,0.0,0.0,97,0.00,,,0.00,WUHU21623XXSP,2012-11-18 21:00:00,
2012-11-18 13:05:00,45.1,44.3,29.68,SE,135,0.0,0.0,97,0.00,,,0.00,WUHU21623XXSP,2012-11-18 21:05:00,
2012-11-18 13:10:00,45.0,44.1,29.68,SE,135,0.0,0.0,97,0.00,,,0.00,WUHU21623XXSP,2012-11-18 21:10:00,
2012-11-18 13:15:00,45.0,44.1,29.68,ESE,112,0.0,0.0,97,0.00,,,0.00,WUHU21623XXSP,2012-11-18 21:15:00,
2012-11-18 13:20:00,45.1,44.3,29.68,ESE,112,0.0,0.0,97,0.00,,,0.00,WUHU21623XXSP,2012-11-18 21:20:00,
2012-11-18 13:25:00,45.0,44.1,29.68,ESE,112,0.0,0.0,97,0.00,,,0.00,WUHU21623XXSP,2012-11-18 21:25:00,
2012-11-18 13:30:00,45.1,44.3,29.67,ESE,112,0.0,0.0,97,0.00,,,0.00,WUHU21623XXSP,2012-11-18 21:30:00,
2012-11-18 13:35:00,45.1,44.3,29.67,ESE,112,0.0,0.0,97,0.00,,,0.00,WUHU21623XXSP,2012-11-18 21:35:00,
2012-11-18 13:40:00,45.0,44.1,29.66,ENE,67,0.0,0.0,97,0.00,,,0.00,WUHU21623XXSP,2012-11-18 21:40:00,
2012-11-18 13:45:00,45.0,44.1,29.66,ENE,67,0.0,0.0,97,0.00,,,0.00,WUHU21623XXSP,2012-11-18 21:45:00,
2012-11-18 13:50:00,45.0,44.1,29.66,ENE,67,0.0,0.0,97,0.00,,,0.00,WUHU21623XXSP,2012-11-18 21:50:00,
2012-11-18 13:55:00,45.0,44.1,29.65,ESE,112,0.0,0.0,97,0.00,,,0.00,WUHU21623XXSP,2012-11-18 21:55:00,
2012-11-18 14:00:00,44.8,44.0,29.65,NNE,22,0.0,0.0,97,0.00,,,0.00,WUHU21623XXSP,2012-11-18 22:00:00,
2012-11-18 14:05:00,45.0,44.1,29.65,NE,45,0.0,0.0,97,0.00,,,0.00,WUHU21623XXSP,2012-11-18 22:05:00,
2012-11-18 14:10:00,45.0,44.1,29.64,NE,45,0.0,0.0,97,0.00,,,0.00,WUHU21623XXSP,2012-11-18 22:10:00,
2012-11-18 14:15:00,45.0,44.1,29.64,NE,45,0.0,0.0,97,0.00,,,0.00,WUHU21623XXSP,2012-11-18 22:15:00,
2012-11-18 14:20:00,44.8,44.1,29.63,NE,45,0.0,0.0,97,0.00,,,0.00,WUHU21623XXSP,2012-11-18 22:20:00,
2012-11-18 14:25:00,44.8,44.0,29.63,ENE,67,0.0,0.0,97,0.00,,,0.00,WUHU21623XXSP,2012-11-18 22:25:00,
2012-11-18 14:30:00,44.8,44.0,29.63,ENE,67,0.0,0.0,97,0.00,,,0.00,WUHU21623XXSP,2012-11-18 22:30:00,
2012-11-18 14:35:00,44.8,44.0,29.62,ENE,67,0.0,0.0,97,0.00,,,0.00,WUHU21623XXSP,2012-11-18 22:35:00,
2012-11-18 14:40:00,44.8,44.0,29.62,NNE,22,0.0,0.0,97,0.00,,,0.00,WUHU21623XXSP,2012-11-18 22:40:00,
2012-11-18 14:45:00,44.6,43.8,29.62,NE,45,0.0,0.0,97,0.00,,,0.00,WUHU21623XXSP,2012-11-18 22:45:00,
2012-11-18 14:50:00,44.6,43.8,29.63,NE,45,0.0,0.0,97,0.00,,,0.00,WUHU21623XXSP,2012-11-18 22:50:00,
2012-11-18 14:55:00,44.6,44.1,29.63,SE,135,0.0,0.0,98,0.00,,,0.00,WUHU21623XXSP,2012-11-18 22:55:00,
2012-11-18 15:00:00,44.4,43.9,29.63,SE,135,0.0,0.0,98,0.00,,,0.00,WUHU21623XXSP,2012-11-18 23:00:00,
2012-11-18 15:05:00,44.4,43.9,29.63,SE,135,0.0,0.0,98,0.00,,,0.00,WUHU21623XXSP,2012-11-18 23:05:00,
2012-11-18 15:10:00,44.4,43.9,29.63,SE,135,0.0,0.0,98,0.00,,,0.00,WUHU21623XXSP,2012-11-18 23:10:00,
2012-11-18 15:15:00,44.6,43.9,29.63,SE,135,0.0,0.0,98,0.00,,,0.00,WUHU21623XXSP,2012-11-18 23:15:00,
2012-11-18 15:20:00,44.4,43.9,29.62,SE,135,0.0,0.0,98,0.00,,,0.00,WUHU21623XXSP,2012-11-18 23:20:00,
2012-11-18 15:25:00,44.4,43.9,29.62,SE,135,0.0,0.0,98,0.00,,,0.00,WUHU21623XXSP,2012-11-18 23:25:00,
2012-11-18 15:30:00,44.4,43.9,29.62,SE,135,0.0,0.0,98,0.00,,,0.00,WUHU21623XXSP,2012-11-18 23:30:00,
2012-11-18 15:35:00,44.4,43.9,29.62,SE,135,0.0,0.0,98,0.00,,,0.00,WUHU21623XXSP,2012-11-18 23:35:00,
2012-11-18 15:40:00,44.6,44.1,29.62,SE,135,0.0,0.0,98,0.00,,,0.00,WUHU21623XXSP,2012-11-18 23:40:00,
2012-11-18 15:45:00,44.4,43.9,29.61,SE,135,0.0,0.0,98,0.00,,,0.00,WUHU21623XXSP,2012-11-18 23:45:00,
2012-11-18 15:50:00,44.4,43.9,29.61,ESE,112,0.0,0.0,98,0.00,,,0.00,WUHU21623XXSP,2012-11-18 23:50:00,
2012-11-18 15:55:00,44.4,43.9,29.61,SE,135,0.0,0.0,98,0.00,,,0.00,WUHU21623XXSP,2012-11-18 23:55:00,
2012-11-18 16:00:00,44.4,43.6,29.61,SE,135,0.0,0.0,97,0.00,,,0.00,WUHU21623XXSP,2012-11-19 00:00:00,
2012-11-18 16:05:00,44.4,43.6,29.61,East,90,0.0,0.0,97,0.00,,,0.00,WUHU21623XXSP,2012-11-19 00:05:00,
2012-11-18 16:10:00,44.2,43.4,29.60,SE,135,0.0,0.0,97,0.00,,,0.00,WUHU21623XXSP,2012-11-19 00:10:00,
2012-11-18 16:15:00,44.2,43.6,29.60,SE,135,0.0,0.0,97,0.00,,,0.00,WUHU21623XXSP,2012-11-19 00:15:00,
2012-11-18 16:20:00,44.2,43.4,29.60,SE,135,0.0,0.0,97,0.00,,,0.00,WUHU21623XXSP,2012-11-19 00:20:00,
2012-11-18 16:25:00,44.1,43.3,29.60,SE,135,0.0,0.0,97,0.00,,,0.00,WUHU21623XXSP,2012-11-19 00:25:00,
2012-11-18 16:30:00,44.1,43.3,29.59,SE,135,0.0,0.0,97,0.00,,,0.00,WUHU21623XXSP,2012-11-19 00:30:00,
2012-11-18 16:35:00,43.9,43.1,29.58,ESE,112,0.0,0.0,97,0.00,,,0.00,WUHU21623XXSP,2012-11-19 00:35:00,
2012-11-18 16:40:00,43.9,43.1,29.58,ESE,112,0.0,0.0,97,0.00,,,0.00,WUHU21623XXSP,2012-11-19 00:40:00,
2012-11-18 16:45:00,43.9,43.1,29.58,ESE,112,0.0,0.0,97,0.00,,,0.00,WUHU21623XXSP,2012-11-19 00:45:00,
2012-11-18 16:50:00,43.7,42.9,29.57,ESE,112,0.0,0.0,97,0.00,,,0.00,WUHU21623XXSP,2012-11-19 00:50:00,
2012-11-18 16:55:00,43.7,42.9,29.57,ESE,112,0.0,0.0,97,0.00,,,0.00,WUHU21623XXSP,2012-11-19 00:55:00,
2012-11-18 17:00:00,43.7,42.9,29.57,SE,135,0.0,0.0,97,0.00,,,0.00,WUHU21623XXSP,2012-11-19 01:00:00,
2012-11-18 17:05:00,43.7,42.9,29.56,SE,135,0.0,0.0,97,0.00,,,0.00,WUHU21623XXSP,2012-11-19 01:05:00,
2012-11-18 17:10:00,43.7,42.9,29.55,ESE,112,0.0,0.0,97,0.00,,,0.00,WUHU21623XXSP,2012-11-19 01:10:00,
2012-11-18 17:15:00,43.5,42.7,29.55,ESE,112,0.0,0.0,97,0.00,,,0.00,WUHU21623XXSP,2012-11-19 01:15:00,
2012-11-18 17:20:00,43.5,42.7,29.54,SE,135,0.0,0.0,97,0.00,,,0.00,WUHU21623XXSP,2012-11-19 01:20:00,
2012-11-18 17:25:00,43.5,42.7,29.54,SE,135,0.0,0.0,97,0.00,,,0.00,WUHU21623XXSP,2012-11-19 01:25:00,
2012-11-18 17:30:00,43.5,42.7,29.53,SE,135,0.0,0.0,97,0.00,,,0.00,WUHU21623XXSP,2012-11-19 01:30:00,
2012-11-18 17:35:00,43.7,42.9,29.53,ESE,112,0.0,0.0,97,0.00,,,0.00,WUHU21623XXSP,2012-11-19 01:35:00,
2012-11-18 17:40:00,43.5,42.7,29.52,South,180,0.0,0.0,97,0.00,,,0.00,WUHU21623XXSP,2012-11-19 01:40:00,
2012-11-18 17:45:00,43.7,42.9,29.52,ESE,112,0.0,0.0,97,0.00,,,0.00,WUHU21623XXSP,2012-11-19 01:45:00,
2012-11-18 17:50:00,43.5,42.7,29.51,East,90,0.0,0.0,97,0.00,,,0.00,WUHU21623XXSP,2012-11-19 01:50:00,
2012-11-18 17:55:00,43.7,42.9,29.52,ESE,112,0.0,0.0,97,0.00,,,0.00,WUHU21623XXSP,2012-11-19 01:55:00,
2012-11-18 18:00:00,43.7,42.9,29.51,SE,135,0.0,0.0,97,0.00,,,0.00,WUHU21623XXSP,2012-11-19 02:00:00,
2012-11-18 18:05:00,43.7,42.9,29.51,ESE,112,0.0,0.0,97,0.00,,,0.00,WUHU21623XXSP,2012-11-19 02:05:00,
2012-11-18 18:10:00,43.5,42.7,29.51,West,270,0.0,0.0,97,0.00,,,0.00,WUHU21623XXSP,2012-11-19 02:10:00,
2012-11-18 18:15:00,43.7,42.9,29.51,SSE,157,0.0,0.0,97,0.00,,,0.00,WUHU21623XXSP,2012-11-19 02:15:00,
2012-11-18 18:20:00,43.7,43.2,29.50,SE,135,0.0,0.0,98,0.00,,,0.00,WUHU21623XXSP,2012-11-19 02:20:00,
2012-11-18 18:26:00,43.7,43.2,29.50,SSE,157,0.0,0.0,98,0.00,,,0.00,WUHU21623XXSP,2012-11-19 02:26:00,
2012-11-18 18:31:00,43.7,43.2,29.50,SE,135,0.0,0.0,98,0.00,,,0.00,WUHU21623XXSP,2012-11-19 02:31:00,
2012-11-18 18:36:00,43.7,42.9,29.50,SE,135,0.0,0.0,97,0.00,,,0.00,WUHU21623XXSP,2012-11-19 02:36:00,
2012-11-18 18:41:00,43.7,42.9,29.50,ENE,67,0.0,0.0,97,0.00,,,0.00,WUHU21623XXSP,2012-11-19 02:41:00,
2012-11-18 18:46:00,43.9,43.3,29.50,SSE,157,0.0,0.0,98,0.00,,,0.00,WUHU21623XXSP,2012-11-19 02:46:00,
2012-11-18 18:51:00,43.7,43.2,29.49,East,90,0.0,0.0,98,0.00,,,0.00,WUHU21623XXSP,2012-11-19 02:51:00,
2012-11-18 18:56:00,43.7,43.2,29.50,SE,135,0.0,0.0,98,0.00,,,0.00,WUHU21623XXSP,2012-11-19 02:56:00,
2012-11-18 19:01:00,43.7,43.2,29.50,SE,135,0.0,0.0,98,0.00,,,0.00,WUHU21623XXSP,2012-11-19 03:01:00,
2012-11-18 19:06:00,43.9,43.3,29.50,SSE,157,0.0,0.0,98,0.00,,,0.00,WUHU21623XXSP,2012-11-19 03:06:00,
2012-11-18 19:11:00,43.9,43.3,29.50,SE,135,0.0,0.0,98,0.00,,,0.00,WUHU21623XXSP,2012-11-19 03:11:00,
2012-11-18 19:16:00,43.9,43.3,29.51,SSE,157,0.0,0.0,98,0.00,,,0.00,WUHU21623XXSP,2012-11-19 03:16:00,
2012-11-18 19:21:00,43.9,43.3,29.51,SE,135,0.0,0.0,98,0.00,,,0.00,WUHU21623XXSP,2012-11-19 03:21:00,
2012-11-18 19:26:00,43.9,43.3,29.52,East,90,0.0,0.0,98,0.00,,,0.00,WUHU21623XXSP,2012-11-19 03:26:00,
2012-11-18 19:31:00,43.9,43.3,29.51,East,90,0.0,0.0,98,0.00,,,0.00,WUHU21623XXSP,2012-11-19 03:31:00,
2012-11-18 19:36:00,43.9,43.3,29.51,SE,135,0.0,0.0,98,0.00,,,0.00,WUHU21623XXSP,2012-11-19 03:36:00,
2012-11-18 19:41:00,43.9,43.3,29.51,SSE,157,0.0,0.0,98,0.00,,,0.00,WUHU21623XXSP,2012-11-19 03:41:00,
2012-11-18 19:46:00,43.9,43.3,29.51,SSE,157,0.0,0.0,98,0.00,,,0.00,WUHU21623XXSP,2012-11-19 03:46:00,
2012-11-18 19:51:00,43.9,43.3,29.51,ESE,112,0.0,0.0,98,0.00,,,0.00,WUHU21623XXSP,2012-11-19 03:51:00,
2012-11-18 19:56:00,43.9,43.3,29.51,ESE,112,0.0,0.0,98,0.00,,,0.00,WUHU21623XXSP,2012-11-19 03:56:00,
2012-11-18 20:01:00,43.9,43.3,29.51,ESE,112,0.0,0.0,98,0.00,,,0.00,WUHU21623XXSP,2012-11-19 04:01:00,
2012-11-18 20:06:00,43.9,43.3,29.51,ESE,112,0.0,0.0,98,0.00,,,0.00,WUHU21623XXSP,2012-11-19 04:06:00,
2012-11-18 20:11:00,43.9,43.3,29.52,ESE,112,0.0,0.0,98,0.00,,,0.00,WUHU21623XXSP,2012-11-19 04:11:00,
2012-11-18 20:16:00,43.9,43.3,29.52,ESE,112,0.0,0.0,98,0.00,,,0.00,WUHU21623XXSP,2012-11-19 04:16:00,
2012-11-18 20:21:00,43.9,43.3,29.53,ESE,112,0.0,0.0,98,0.00,,,0.00,WUHU21623XXSP,2012-11-19 04:21:00,
2012-11-18 20:26:00,43.9,43.3,29.53,ESE,112,0.0,0.0,98,0.00,,,0.00,WUHU21623XXSP,2012-11-19 04:26:00,
2012-11-18 20:31:00,43.9,43.3,29.53,SE,135,0.0,0.0,98,0.00,,,0.00,WUHU21623XXSP,2012-11-19 04:31:00,
2012-11-18 20:36:00,43.9,43.3,29.53,ESE,112,0.0,0.0,98,0.00,,,0.00,WUHU21623XXSP,2012-11-19 04:36:00,
2012-11-18 20:41:00,43.9,43.3,29.53,ESE,112,0.0,0.0,98,0.00,,,0.00,WUHU21623XXSP,2012-11-19 04:41:00,
2012-11-18 20:46:00,44.1,43.5,29.53,SE,135,0.0,0.0,98,0.00,,,0.00,WUHU21623XXSP,2012-11-19 04:46:00,
2012-11-18 20:51:00,44.1,43.5,29.53,SE,135,0.0,0.0,98,0.00,,,0.00,WUHU21623XXSP,2012-11-19 04:51:00,
2012-11-18 20:56:00,44.1,43.5,29.53,SE,135,0.0,0.0,98,0.00,,,0.00,WUHU21623XXSP,2012-11-19 04:56:00,
2012-11-18 21:00:00,44.1,43.5,29.53,SE,135,0.0,0.0,98,0.00,,,0.00,WUHU21623XXSP,2012-11-19 05:00:00,
2012-11-18 21:05:00,44.2,43.7,29.53,SE,135,0.0,0.0,98,0.00,,,0.00,WUHU21623XXSP,2012-11-19 05:05:00,
2012-11-18 21:10:00,44.2,43.7,29.53,SE,135,0.0,0.0,98,0.00,,,0.00,WUHU21623XXSP,2012-11-19 05:10:00,
2012-11-18 21:15:00,44.2,43.7,29.53,SE,135,0.0,0.0,98,0.00,,,0.00,WUHU21623XXSP,2012-11-19 05:15:00,
2012-11-18 21:20:00,44.4,43.9,29.53,East,90,0.0,0.0,98,0.00,,,0.00,WUHU21623XXSP,2012-11-19 05:20:00,
2012-11-18 21:25:00,44.4,43.9,29.54,ESE,112,0.0,0.0,98,0.00,,,0.00,WUHU21623XXSP,2012-11-19 05:25:00,
2012-11-18 21:30:00,44.4,43.9,29.54,ESE,112,0.0,0.0,98,0.00,,,0.00,WUHU21623XXSP,2012-11-19 05:30:00,
2012-11-18 21:35:00,44.4,43.9,29.54,NE,45,0.0,0.0,98,0.00,,,0.00,WUHU21623XXSP,2012-11-19 05:35:00,
2012-11-18 21:40:00,44.4,43.9,29.53,SE,135,0.0,0.0,98,0.00,,,0.00,WUHU21623XXSP,2012-11-19 05:40:00,
2012-11-18 21:45:00,44.4,43.9,29.53,SE,135,0.0,0.0,98,0.00,,,0.00,WUHU21623XXSP,2012-11-19 05:45:00,
2012-11-18 21:50:00,44.4,43.9,29.53,ENE,67,0.0,0.0,98,0.00,,,0.00,WUHU21623XXSP,2012-11-19 05:50:00,
2012-11-18 21:55:00,44.4,43.9,29.53,ENE,67,0.0,0.0,98,0.00,,,0.00,WUHU21623XXSP,2012-11-19 05:55:00,
2012-11-18 22:00:00,44.6,44.1,29.53,SE,135,0.0,0.0,98,0.00,,,0.00,WUHU21623XXSP,2012-11-19 06:00:00,
2012-11-18 22:05:00,44.8,44.1,29.54,SE,135,0.0,0.0,98,0.00,,,0.00,WUHU21623XXSP,2012-11-19 06:05:00,
2012-11-18 22:10:00,44.8,44.2,29.54,ENE,67,0.0,0.0,98,0.00,,,0.00,WUHU21623XXSP,2012-11-19 06:10:00,
2012-11-18 22:15:00,44.8,44.5,29.54,ESE,112,0.0,0.0,99,0.00,,,0.00,WUHU21623XXSP,2012-11-19 06:15:00,
2012-11-18 22:20:00,45.0,44.7,29.53,SE,135,0.0,0.0,99,0.00,,,0.00,WUHU21623XXSP,2012-11-19 06:20:00,
2012-11-18 22:25:00,45.0,44.7,29.53,SE,135,0.0,0.0,99,0.00,,,0.00,WUHU21623XXSP,2012-11-19 06:25:00,
2012-11-18 22:30:00,45.0,44.7,29.53,ESE,112,0.0,0.0,99,0.00,,,0.00,WUHU21623XXSP,2012-11-19 06:30:00,
2012-11-18 22:35:00,45.0,44.7,29.53,ESE,112,0.0,0.0,99,0.00,,,0.00,WUHU21623XXSP,2012-11-19 06:35:00,
2012-11-18 22:40:00,45.1,44.9,29.54,SSE,157,0.0,0.0,99,0.00,,,0.00,WUHU21623XXSP,2012-11-19 06:40:00,
2012-11-18 22:45:00,45.0,44.7,29.54,ESE,112,0.0,0.0,99,0.00,,,0.00,WUHU21623XXSP,2012-11-19 06:45:00,
2012-11-18 22:50:00,45.1,44.7,29.54,SE,135,0.0,0.0,99,0.00,,,0.00,WUHU21623XXSP,2012-11-19 06:50:00,
2012-11-18 22:55:00,45.1,44.9,29.54,SE,135,0.0,0.0,99,0.00,,,0.00,WUHU21623XXSP,2012-11-19 06:55:00,
2012-11-18 23:00:00,45.1,44.9,29.53,SSE,157,0.0,0.0,99,0.00,,,0.00,WUHU21623XXSP,2012-11-19 07:00:00,
2012-11-18 23:05:00,45.1,44.9,29.53,SE,135,0.0,0.0,99,0.00,,,0.00,WUHU21623XXSP,2012-11-19 07:05:00,
2012-11-18 23:10:00,45.1,44.9,29.53,SE,135,0.0,0.0,99,0.00,,,0.00,WUHU21623XXSP,2012-11-19 07:10:00,
2012-11-18 23:15:00,45.1,44.9,29.54,NE,45,0.0,0.0,99,0.00,,,0.00,WUHU21623XXSP,2012-11-19 07:15:00,
2012-11-18 23:20:00,45.0,44.7,29.54,NE,45,0.0,0.0,99,0.00,,,0.00,WUHU21623XXSP,2012-11-19 07:20:00,
2012-11-18 23:25:00,45.1,44.9,29.54,SSE,157,0.0,0.0,99,0.00,,,0.00,WUHU21623XXSP,2012-11-19 07:25:00,
2012-11-18 23:30:00,45.0,44.7,29.54,SE,135,0.0,0.0,99,0.00,,,0.00,WUHU21623XXSP,2012-11-19 07:30:00,
2012-11-18 23:35:00,45.0,44.4,29.54,ESE,112,0.0,0.0,98,0.00,,,0.00,WUHU21623XXSP,2012-11-19 07:35:00,
2012-11-18 23:40:00,45.0,44.4,29.55,SE,135,0.0,0.0,98,0.00,,,0.00,WUHU21623XXSP,2012-11-19 07:40:00,
2012-11-18 23:45:00,45.1,44.6,29.55,ESE,112,0.0,0.0,98,0.00,,,0.00,WUHU21623XXSP,2012-11-19 07:45:00,
2012-11-18 23:50:00,45.0,44.4,29.55,ESE,112,0.0,0.0,98,0.00,,,0.00,WUHU21623XXSP,2012-11-19 07:50:00,
2012-11-18 23:55:00,45.0,44.4,29.55,SE,135,0.0,0.0,98,0.00,,,0.00,WUHU21623XXSP,2012-11-19 07:55:00,